sensor_id;sensor_type;location;lat;lon;timestamp;pressure;altitude;pressure_sealevel;temperature;humidity
78509;BME280;67802;50.846;7.958;2024-03-08T00:01:52;97935.63;;;19.42;29.03
78509;BME280;67802;50.846;7.958;2024-03-08T00:04:17;97941.63;;;19.45;29.06
78509;BME280;67802;50.846;7.958;2024-03-08T00:06:43;97936.34;;;19.45;29.08
78509;BME280;67802;50.846;7.958;2024-03-08T00:09:11;97939.00;;;19.45;29.14
78509;BME280;67802;50.846;7.958;2024-03-08T00:11:36;97935.41;;;19.46;29.16
78509;BME280;67802;50.846;7.958;2024-03-08T00:14:01;97938.03;;;19.46;28.85
78509;BME280;67802;50.846;7.958;2024-03-08T00:16:27;97940.66;;;19.46;29.16
78509;BME280;67802;50.846;7.958;2024-03-08T00:18:52;97927.34;;;19.47;28.94
78509;BME280;67802;50.846;7.958;2024-03-08T00:21:18;97928.31;;;19.46;29.13
78509;BME280;67802;50.846;7.958;2024-03-08T00:23:43;97923.78;;;19.48;28.95
78509;BME280;67802;50.846;7.958;2024-03-08T00:26:08;97927.25;;;19.49;29.09
78509;BME280;67802;50.846;7.958;2024-03-08T00:28:34;97919.22;;;19.50;29.08
78509;BME280;67802;50.846;7.958;2024-03-08T00:30:59;97916.47;;;19.52;29.01
78509;BME280;67802;50.846;7.958;2024-03-08T00:33:25;97919.13;;;19.52;29.06
78509;BME280;67802;50.846;7.958;2024-03-08T00:35:50;97920.78;;;19.53;29.01
78509;BME280;67802;50.846;7.958;2024-03-08T00:38:16;97917.19;;;19.54;28.98
78509;BME280;67802;50.846;7.958;2024-03-08T00:40:41;97901.38;;;19.54;28.93
78509;BME280;67802;50.846;7.958;2024-03-08T00:43:07;97911.78;;;19.55;28.80
78509;BME280;67802;50.846;7.958;2024-03-08T00:45:32;97915.28;;;19.56;29.00
78509;BME280;67802;50.846;7.958;2024-03-08T00:47:57;97911.69;;;19.57;28.83
78509;BME280;67802;50.846;7.958;2024-03-08T00:50:22;97903.78;;;19.57;28.93
78509;BME280;67802;50.846;7.958;2024-03-08T00:52:48;97908.09;;;19.58;28.96
78509;BME280;67802;50.846;7.958;2024-03-08T00:55:13;97900.19;;;19.58;28.96
78509;BME280;67802;50.846;7.958;2024-03-08T00:57:38;97894.91;;;19.58;28.91
78509;BME280;67802;50.846;7.958;2024-03-08T01:00:06;97898.28;;;19.60;28.88
78509;BME280;67802;50.846;7.958;2024-03-08T01:02:35;97896.47;;;19.61;28.95
78509;BME280;67802;50.846;7.958;2024-03-08T01:05:01;97887.59;;;19.62;28.86
78509;BME280;67802;50.846;7.958;2024-03-08T01:07:26;97891.06;;;19.62;28.80
78509;BME280;67802;50.846;7.958;2024-03-08T01:09:51;97882.19;;;19.63;28.98
78509;BME280;67802;50.846;7.958;2024-03-08T01:12:17;97890.00;;;19.65;28.79
78509;BME280;67802;50.846;7.958;2024-03-08T01:14:42;97879.31;;;19.66;28.93
78509;BME280;67802;50.846;7.958;2024-03-08T01:17:08;97871.28;;;19.68;28.83
78509;BME280;67802;50.846;7.958;2024-03-08T01:19:35;97861.59;;;19.68;28.77
78509;BME280;67802;50.846;7.958;2024-03-08T01:22:00;97864.94;;;19.70;28.59
78509;BME280;67802;50.846;7.958;2024-03-08T01:24:26;97856.06;;;19.71;28.85
78509;BME280;67802;50.846;7.958;2024-03-08T01:26:51;97860.38;;;19.72;28.69
78509;BME280;67802;50.846;7.958;2024-03-08T01:29:16;97848.88;;;19.73;28.91
78509;BME280;67802;50.846;7.958;2024-03-08T01:31:42;97844.31;;;19.76;28.90
78509;BME280;67802;50.846;7.958;2024-03-08T01:34:08;97843.34;;;19.77;28.67
78509;BME280;67802;50.846;7.958;2024-03-08T01:36:33;97843.34;;;19.77;28.86
78509;BME280;67802;50.846;7.958;2024-03-08T01:38:58;97841.44;;;19.79;28.88
78509;BME280;67802;50.846;7.958;2024-03-08T01:41:24;97838.69;;;19.80;28.73
78509;BME280;67802;50.846;7.958;2024-03-08T01:43:49;97836.88;;;19.81;28.67
78509;BME280;67802;50.846;7.958;2024-03-08T01:46:17;97831.50;;;19.82;28.67
78509;BME280;67802;50.846;7.958;2024-03-08T01:48:44;97832.31;;;19.83;28.72
78509;BME280;67802;50.846;7.958;2024-03-08T01:51:10;97832.06;;;19.86;28.58
78509;BME280;67802;50.846;7.958;2024-03-08T01:53:37;97827.66;;;19.86;28.77
78509;BME280;67802;50.846;7.958;2024-03-08T01:56:02;97821.31;;;19.89;28.70
78509;BME280;67802;50.846;7.958;2024-03-08T01:58:29;97820.34;;;19.90;28.70
78509;BME280;67802;50.846;7.958;2024-03-08T02:00:56;97820.34;;;19.90;28.65
78509;BME280;67802;50.846;7.958;2024-03-08T02:03:21;97818.53;;;19.91;28.38
78509;BME280;67802;50.846;7.958;2024-03-08T02:05:48;97814.13;;;19.91;28.50
78509;BME280;67802;50.846;7.958;2024-03-08T02:08:14;97808.00;;;19.91;28.60
78509;BME280;67802;50.846;7.958;2024-03-08T02:10:41;97807.16;;;19.90;28.60
78509;BME280;67802;50.846;7.958;2024-03-08T02:13:10;97801.16;;;19.88;28.48
78509;BME280;67802;50.846;7.958;2024-03-08T02:15:58;97800.44;;;19.86;28.63
78509;BME280;67802;50.846;7.958;2024-03-08T02:18:28;97797.94;;;19.84;28.46
78509;BME280;67802;50.846;7.958;2024-03-08T02:20:58;97795.66;;;19.80;28.56
78509;BME280;67802;50.846;7.958;2024-03-08T02:23:25;97796.88;;;19.76;28.48
78509;BME280;67802;50.846;7.958;2024-03-08T02:25:51;97798.94;;;19.72;28.37
78509;BME280;67802;50.846;7.958;2024-03-08T02:28:18;97795.50;;;19.60;28.12
78509;BME280;67802;50.846;7.958;2024-03-08T02:30:44;97794.56;;;19.50;28.61
78509;BME280;67802;50.846;7.958;2024-03-08T02:33:09;97790.50;;;19.46;28.63
78509;BME280;67802;50.846;7.958;2024-03-08T02:35:35;97791.47;;;19.45;28.81
78509;BME280;67802;50.846;7.958;2024-03-08T02:38:01;97800.34;;;19.43;28.83
78509;BME280;67802;50.846;7.958;2024-03-08T02:40:26;97791.47;;;19.45;28.71
78509;BME280;67802;50.846;7.958;2024-03-08T02:42:52;97788.59;;;19.48;28.62
78509;BME280;67802;50.846;7.958;2024-03-08T02:45:17;97790.03;;;19.52;28.54
78509;BME280;67802;50.846;7.958;2024-03-08T02:47:43;97787.13;;;19.55;28.61
78509;BME280;67802;50.846;7.958;2024-03-08T02:50:08;97787.72;;;19.58;28.60
78509;BME280;67802;50.846;7.958;2024-03-08T02:52:34;97786.38;;;19.64;28.49
78509;BME280;67802;50.846;7.958;2024-03-08T02:55:00;97771.16;;;19.68;28.33
78509;BME280;67802;50.846;7.958;2024-03-08T02:57:26;97778.69;;;19.72;28.35
78509;BME280;67802;50.846;7.958;2024-03-08T02:59:53;97782.72;;;19.77;28.27
78509;BME280;67802;50.846;7.958;2024-03-08T03:02:18;97775.53;;;19.79;28.24
78509;BME280;67802;50.846;7.958;2024-03-08T03:04:44;97775.28;;;19.82;28.27
78509;BME280;67802;50.846;7.958;2024-03-08T03:07:09;97774.06;;;19.86;28.07
78509;BME280;67802;50.846;7.958;2024-03-08T03:09:34;97766.88;;;19.88;28.17
78509;BME280;67802;50.846;7.958;2024-03-08T03:12:00;97765.00;;;19.90;28.10
78509;BME280;67802;50.846;7.958;2024-03-08T03:14:25;97762.22;;;19.92;28.20
78509;BME280;67802;50.846;7.958;2024-03-08T03:16:53;97766.41;;;19.94;28.08
78509;BME280;67802;50.846;7.958;2024-03-08T03:19:19;97761.97;;;19.95;28.03
78509;BME280;67802;50.846;7.958;2024-03-08T03:21:45;97752.25;;;19.95;27.88
78509;BME280;67802;50.846;7.958;2024-03-08T03:24:11;97752.97;;;19.97;28.06
78509;BME280;67802;50.846;7.958;2024-03-08T03:26:38;97755.47;;;19.99;27.89
78509;BME280;67802;50.846;7.958;2024-03-08T03:29:06;97756.19;;;20.01;27.85
78509;BME280;67802;50.846;7.958;2024-03-08T03:31:33;97759.66;;;20.01;27.85
78509;BME280;67802;50.846;7.958;2024-03-08T03:33:59;97745.53;;;20.02;27.96
78509;BME280;67802;50.846;7.958;2024-03-08T03:36:27;97749.81;;;20.04;27.79
78509;BME280;67802;50.846;7.958;2024-03-08T03:38:55;97742.75;;;20.04;27.71
78509;BME280;67802;50.846;7.958;2024-03-08T03:41:38;97741.66;;;20.07;27.83
78509;BME280;67802;50.846;7.958;2024-03-08T03:44:04;97748.59;;;20.08;27.74
78509;BME280;67802;50.846;7.958;2024-03-08T03:46:31;97740.69;;;20.08;27.68
78509;BME280;67802;50.846;7.958;2024-03-08T03:48:57;97743.06;;;20.11;27.69
78509;BME280;67802;50.846;7.958;2024-03-08T03:51:22;97731.69;;;20.10;27.62
78509;BME280;67802;50.846;7.958;2024-03-08T03:53:47;97740.28;;;20.12;27.72
78509;BME280;67802;50.846;7.958;2024-03-08T03:56:13;97734.88;;;20.14;27.66
78509;BME280;67802;50.846;7.958;2024-03-08T03:58:38;97727.81;;;20.14;27.53
78509;BME280;67802;50.846;7.958;2024-03-08T04:01:05;97726.00;;;20.15;27.56
78509;BME280;67802;50.846;7.958;2024-03-08T04:03:30;97725.75;;;20.18;27.47
78509;BME280;67802;50.846;7.958;2024-03-08T04:05:56;97720.34;;;20.20;27.65
78509;BME280;67802;50.846;7.958;2024-03-08T04:08:21;97718.44;;;20.22;27.66
78509;BME280;67802;50.846;7.958;2024-03-08T04:10:46;97717.47;;;20.23;27.46
78509;BME280;67802;50.846;7.958;2024-03-08T04:13:11;97726.19;;;20.23;27.54
78509;BME280;67802;50.846;7.958;2024-03-08T04:15:37;97718.16;;;20.25;27.65
78509;BME280;67802;50.846;7.958;2024-03-08T04:18:03;97721.63;;;20.25;27.56
78509;BME280;67802;50.846;7.958;2024-03-08T04:20:28;97717.06;;;20.27;27.44
78509;BME280;67802;50.846;7.958;2024-03-08T04:22:54;97715.13;;;20.29;27.51
78509;BME280;67802;50.846;7.958;2024-03-08T04:25:19;97713.34;;;20.30;27.25
78509;BME280;67802;50.846;7.958;2024-03-08T04:27:45;97713.19;;;20.31;27.49
78509;BME280;67802;50.846;7.958;2024-03-08T04:30:12;97709.59;;;20.33;27.52
78509;BME280;67802;50.846;7.958;2024-03-08T04:32:37;97716.53;;;20.34;27.56
78509;BME280;67802;50.846;7.958;2024-03-08T04:35:03;97705.03;;;20.35;27.45
78509;BME280;67802;50.846;7.958;2024-03-08T04:37:28;97705.88;;;20.35;27.51
78509;BME280;67802;50.846;7.958;2024-03-08T04:39:57;97703.09;;;20.37;27.08
78509;BME280;67802;50.846;7.958;2024-03-08T04:42:22;97699.47;;;20.38;27.46
78509;BME280;67802;50.846;7.958;2024-03-08T04:44:48;97695.88;;;20.39;27.44
78509;BME280;67802;50.846;7.958;2024-03-08T04:47:13;97692.28;;;20.40;27.35
78509;BME280;67802;50.846;7.958;2024-03-08T04:49:39;97689.50;;;20.41;27.41
78509;BME280;67802;50.846;7.958;2024-03-08T04:52:05;97694.78;;;20.41;27.48
78509;BME280;67802;50.846;7.958;2024-03-08T04:54:30;97691.16;;;20.42;27.52
78509;BME280;67802;50.846;7.958;2024-03-08T04:56:56;97689.38;;;20.43;27.42
78509;BME280;67802;50.846;7.958;2024-03-08T04:59:22;97688.53;;;20.42;27.56
78509;BME280;67802;50.846;7.958;2024-03-08T05:01:47;97688.53;;;20.42;27.54
78509;BME280;67802;50.846;7.958;2024-03-08T05:04:15;97697.28;;;20.43;27.49
78509;BME280;67802;50.846;7.958;2024-03-08T05:06:41;97683.41;;;20.41;27.53
78509;BME280;67802;50.846;7.958;2024-03-08T05:09:06;97691.31;;;20.41;27.60
78509;BME280;67802;50.846;7.958;2024-03-08T05:11:40;97689.63;;;20.40;27.51
78509;BME280;67802;50.846;7.958;2024-03-08T05:14:05;97692.97;;;20.42;27.53
78509;BME280;67802;50.846;7.958;2024-03-08T05:16:30;97691.47;;;20.39;27.48
78509;BME280;67802;50.846;7.958;2024-03-08T05:18:56;97690.59;;;20.39;27.57
78509;BME280;67802;50.846;7.958;2024-03-08T05:21:22;97686.28;;;20.38;27.56
78509;BME280;67802;50.846;7.958;2024-03-08T05:23:47;97687.97;;;20.39;27.52
78509;BME280;67802;50.846;7.958;2024-03-08T05:26:12;97688.81;;;20.39;27.61
78509;BME280;67802;50.846;7.958;2024-03-08T05:28:39;97689.78;;;20.38;27.55
78509;BME280;67802;50.846;7.958;2024-03-08T05:31:04;97684.50;;;20.38;27.64
78509;BME280;67802;50.846;7.958;2024-03-08T05:33:30;97687.25;;;20.37;27.59
78509;BME280;67802;50.846;7.958;2024-03-08T05:35:55;97686.44;;;20.36;27.79
78509;BME280;67802;50.846;7.958;2024-03-08T05:38:21;97686.44;;;20.36;27.72
78509;BME280;67802;50.846;7.958;2024-03-08T05:40:46;97688.22;;;20.36;27.72
78509;BME280;67802;50.846;7.958;2024-03-08T05:43:11;97687.25;;;20.37;27.52
78509;BME280;67802;50.846;7.958;2024-03-08T05:45:37;97688.22;;;20.36;27.42
78509;BME280;67802;50.846;7.958;2024-03-08T05:48:02;97681.28;;;20.35;27.71
78509;BME280;67802;50.846;7.958;2024-03-08T05:50:28;97680.31;;;20.36;27.70
78509;BME280;67802;50.846;7.958;2024-03-08T05:52:53;97670.72;;;20.35;27.89
78509;BME280;67802;50.846;7.958;2024-03-08T05:55:18;97668.94;;;20.35;27.75
78509;BME280;67802;50.846;7.958;2024-03-08T05:57:44;97676.16;;;20.33;27.68
78509;BME280;67802;50.846;7.958;2024-03-08T06:00:10;97670.03;;;20.33;27.73
78509;BME280;67802;50.846;7.958;2024-03-08T06:02:40;97665.72;;;20.31;27.72
78509;BME280;67802;50.846;7.958;2024-03-08T06:05:08;97671.97;;;20.30;27.68
78509;BME280;67802;50.846;7.958;2024-03-08T06:07:34;97670.28;;;20.29;27.62
78509;BME280;67802;50.846;7.958;2024-03-08T06:09:59;97669.47;;;20.29;27.60
78509;BME280;67802;50.846;7.958;2024-03-08T06:12:25;97672.22;;;20.27;27.78
78509;BME280;67802;50.846;7.958;2024-03-08T06:14:54;97670.53;;;20.26;27.64
78509;BME280;67802;50.846;7.958;2024-03-08T06:17:19;97661.81;;;20.26;27.84
78509;BME280;67802;50.846;7.958;2024-03-08T06:19:44;97668.88;;;20.25;27.60
78509;BME280;67802;50.846;7.958;2024-03-08T06:22:11;97668.06;;;20.25;27.75
78509;BME280;67802;50.846;7.958;2024-03-08T06:24:37;97665.53;;;20.23;27.60
78509;BME280;67802;50.846;7.958;2024-03-08T06:27:03;97658.59;;;20.22;27.61
78509;BME280;67802;50.846;7.958;2024-03-08T06:29:28;97660.25;;;20.23;27.67
78509;BME280;67802;50.846;7.958;2024-03-08T06:31:54;97664.72;;;20.23;27.79
78509;BME280;67802;50.846;7.958;2024-03-08T06:34:20;97663.88;;;20.22;27.87
78509;BME280;67802;50.846;7.958;2024-03-08T06:36:46;97662.19;;;20.21;27.76
78509;BME280;67802;50.846;7.958;2024-03-08T06:39:11;97670.09;;;20.21;27.73
78509;BME280;67802;50.846;7.958;2024-03-08T06:41:37;97663.03;;;20.22;27.94
78509;BME280;67802;50.846;7.958;2024-03-08T06:44:02;97663.88;;;20.22;27.73
78509;BME280;67802;50.846;7.958;2024-03-08T06:46:28;97663.88;;;20.22;27.68
78509;BME280;67802;50.846;7.958;2024-03-08T06:48:53;97661.22;;;20.22;27.78
78509;BME280;67802;50.846;7.958;2024-03-08T06:51:19;97659.28;;;20.24;27.68
78509;BME280;67802;50.846;7.958;2024-03-08T06:53:44;97654.97;;;20.23;27.80
78509;BME280;67802;50.846;7.958;2024-03-08T06:56:09;97652.22;;;20.25;27.74
78509;BME280;67802;50.846;7.958;2024-03-08T06:58:35;97658.31;;;20.25;27.85
78509;BME280;67802;50.846;7.958;2024-03-08T07:01:00;97661.66;;;20.27;27.97
78509;BME280;67802;50.846;7.958;2024-03-08T07:03:29;97663.34;;;20.28;27.88
78509;BME280;67802;50.846;7.958;2024-03-08T07:05:55;97655.31;;;20.30;27.88
78509;BME280;67802;50.846;7.958;2024-03-08T07:08:21;97655.16;;;20.31;27.82
78509;BME280;67802;50.846;7.958;2024-03-08T07:10:48;97650.59;;;20.34;27.84
78509;BME280;67802;50.846;7.958;2024-03-08T07:13:14;97648.66;;;20.36;27.78
78509;BME280;67802;50.846;7.958;2024-03-08T07:15:40;97648.66;;;20.36;27.81
78509;BME280;67802;50.846;7.958;2024-03-08T07:18:05;97645.06;;;20.37;27.76
78509;BME280;67802;50.846;7.958;2024-03-08T07:20:30;97641.44;;;20.38;27.64
78509;BME280;67802;50.846;7.958;2024-03-08T07:22:56;97647.44;;;20.40;27.79
78509;BME280;67802;50.846;7.958;2024-03-08T07:25:22;97647.16;;;20.43;27.68
78509;BME280;67802;50.846;7.958;2024-03-08T07:27:47;97649.66;;;20.44;27.78
78509;BME280;67802;50.846;7.958;2024-03-08T07:30:13;97638.97;;;20.46;27.63
78509;BME280;67802;50.846;7.958;2024-03-08T07:32:58;97634.41;;;20.48;27.81
78509;BME280;67802;50.846;7.958;2024-03-08T07:35:24;97629.84;;;20.50;27.80
78509;BME280;67802;50.846;7.958;2024-03-08T07:37:51;97634.00;;;20.53;27.71
78509;BME280;67802;50.846;7.958;2024-03-08T07:40:18;97619.84;;;20.54;27.40
78509;BME280;67802;50.846;7.958;2024-03-08T07:42:43;97624.03;;;20.56;27.71
78509;BME280;67802;50.846;7.958;2024-03-08T07:45:09;97617.78;;;20.57;27.67
78509;BME280;67802;50.846;7.958;2024-03-08T07:47:34;97619.44;;;20.58;27.53
78509;BME280;67802;50.846;7.958;2024-03-08T07:50:01;97618.31;;;20.61;27.54
78509;BME280;67802;50.846;7.958;2024-03-08T07:52:27;97614.59;;;20.64;27.67
78509;BME280;67802;50.846;7.958;2024-03-08T07:54:52;97617.94;;;20.66;27.98
78509;BME280;67802;50.846;7.958;2024-03-08T07:57:18;97617.63;;;20.69;27.60
78509;BME280;67802;50.846;7.958;2024-03-08T07:59:44;97614.03;;;20.70;27.58
78509;BME280;67802;50.846;7.958;2024-03-08T08:02:09;97607.66;;;20.72;27.50
78509;BME280;67802;50.846;7.958;2024-03-08T08:04:35;97609.19;;;20.75;27.30
78509;BME280;67802;50.846;7.958;2024-03-08T08:07:00;97604.63;;;20.77;27.59
78509;BME280;67802;50.846;7.958;2024-03-08T08:09:26;97607.97;;;20.79;27.46
78509;BME280;67802;50.846;7.958;2024-03-08T08:11:59;97597.16;;;20.82;27.33
78509;BME280;67802;50.846;7.958;2024-03-08T08:14:25;97599.50;;;20.85;27.24
78509;BME280;67802;50.846;7.958;2024-03-08T08:16:50;97597.56;;;20.87;27.30
78509;BME280;67802;50.846;7.958;2024-03-08T08:19:18;97592.00;;;20.90;27.23
78509;BME280;67802;50.846;7.958;2024-03-08T08:21:43;97592.72;;;20.93;27.27
78509;BME280;67802;50.846;7.958;2024-03-08T08:24:09;97587.28;;;20.94;27.31
78509;BME280;67802;50.846;7.958;2024-03-08T08:26:35;97591.59;;;20.95;27.01
78509;BME280;67802;50.846;7.958;2024-03-08T08:29:01;97581.88;;;20.96;27.17
78509;BME280;67802;50.846;7.958;2024-03-08T08:31:26;97586.03;;;20.98;27.18
78509;BME280;67802;50.846;7.958;2024-03-08T08:33:52;97587.00;;;20.97;27.01
78509;BME280;67802;50.846;7.958;2024-03-08T08:36:26;97582.56;;;20.98;27.13
78509;BME280;67802;50.846;7.958;2024-03-08T08:38:53;97578.00;;;21.00;27.02
78509;BME280;67802;50.846;7.958;2024-03-08T08:41:19;97584.25;;;20.99;27.12
78509;BME280;67802;50.846;7.958;2024-03-08T08:43:46;97574.66;;;20.98;27.11
78509;BME280;67802;50.846;7.958;2024-03-08T08:46:12;97571.03;;;20.99;27.16
78509;BME280;67802;50.846;7.958;2024-03-08T08:48:39;97569.38;;;20.98;27.02
78509;BME280;67802;50.846;7.958;2024-03-08T08:51:06;97560.59;;;20.97;27.06
78509;BME280;67802;50.846;7.958;2024-03-08T08:53:31;97559.78;;;20.97;27.09
78509;BME280;67802;50.846;7.958;2024-03-08T08:55:56;97557.13;;;20.97;27.13
78509;BME280;67802;50.846;7.958;2024-03-08T08:58:22;97554.50;;;20.97;27.05
78509;BME280;67802;50.846;7.958;2024-03-08T09:00:47;97548.25;;;20.98;27.05
78509;BME280;67802;50.846;7.958;2024-03-08T09:03:12;97550.88;;;20.98;26.93
78509;BME280;67802;50.846;7.958;2024-03-08T09:05:38;97540.31;;;20.98;26.98
78509;BME280;67802;50.846;7.958;2024-03-08T09:08:03;97531.56;;;20.97;27.13
78509;BME280;67802;50.846;7.958;2024-03-08T09:10:29;97534.88;;;20.99;27.08
78509;BME280;67802;50.846;7.958;2024-03-08T09:12:54;97520.72;;;21.00;27.17
78509;BME280;67802;50.846;7.958;2024-03-08T09:15:20;97527.66;;;21.01;26.97
78509;BME280;67802;50.846;7.958;2024-03-08T09:17:46;97522.38;;;21.01;27.01
78509;BME280;67802;50.846;7.958;2024-03-08T09:20:11;97515.31;;;21.02;26.92
78509;BME280;67802;50.846;7.958;2024-03-08T09:22:40;97517.78;;;21.03;26.84
78509;BME280;67802;50.846;7.958;2024-03-08T09:25:05;97511.69;;;21.03;27.07
78509;BME280;67802;50.846;7.958;2024-03-08T09:27:32;97507.38;;;21.02;27.02
78509;BME280;67802;50.846;7.958;2024-03-08T09:29:59;97509.34;;;21.00;27.03
78509;BME280;67802;50.846;7.958;2024-03-08T09:32:24;97500.72;;;20.98;27.18
78509;BME280;67802;50.846;7.958;2024-03-08T09:34:49;97504.47;;;20.95;27.05
78509;BME280;67802;50.846;7.958;2024-03-08T09:37:15;97490.56;;;20.93;26.98
78509;BME280;67802;50.846;7.958;2024-03-08T09:39:41;97492.38;;;20.93;26.87
78509;BME280;67802;50.846;7.958;2024-03-08T09:42:06;97487.38;;;20.89;27.05
78509;BME280;67802;50.846;7.958;2024-03-08T09:44:31;97481.41;;;20.87;27.08
78509;BME280;67802;50.846;7.958;2024-03-08T09:47:00;97484.31;;;20.84;27.11
78509;BME280;67802;50.846;7.958;2024-03-08T09:49:27;97474.03;;;20.81;26.94
78509;BME280;67802;50.846;7.958;2024-03-08T09:51:54;97469.88;;;20.79;27.12
78509;BME280;67802;50.846;7.958;2024-03-08T09:54:20;97470.94;;;20.76;27.19
78509;BME280;67802;50.846;7.958;2024-03-08T09:56:48;97465.13;;;20.72;27.11
78509;BME280;67802;50.846;7.958;2024-03-08T09:59:14;97460.13;;;20.69;27.19
78509;BME280;67802;50.846;7.958;2024-03-08T10:01:58;97460.41;;;20.66;27.12
78509;BME280;67802;50.846;7.958;2024-03-08T10:04:24;97449.31;;;20.63;27.09
78509;BME280;67802;50.846;7.958;2024-03-08T10:06:51;97450.41;;;20.60;27.20
78509;BME280;67802;50.846;7.958;2024-03-08T10:09:17;97450.69;;;20.57;27.21
78509;BME280;67802;50.846;7.958;2024-03-08T10:11:42;97439.44;;;20.55;27.17
78509;BME280;67802;50.846;7.958;2024-03-08T10:14:11;97448.47;;;20.52;27.20
78509;BME280;67802;50.846;7.958;2024-03-08T10:16:38;97449.72;;;20.48;27.20
78509;BME280;67802;50.846;7.958;2024-03-08T10:19:04;97450.69;;;20.47;27.14
78509;BME280;67802;50.846;7.958;2024-03-08T10:21:31;97445.69;;;20.44;27.24
78509;BME280;67802;50.846;7.958;2024-03-08T10:23:57;97449.28;;;20.43;27.12
78509;BME280;67802;50.846;7.958;2024-03-08T10:26:24;97445.13;;;20.40;27.23
78509;BME280;67802;50.846;7.958;2024-03-08T10:28:51;97446.22;;;20.38;27.46
78509;BME280;67802;50.846;7.958;2024-03-08T10:31:18;97434.28;;;20.34;27.23
78509;BME280;67802;50.846;7.958;2024-03-08T10:33:45;97436.22;;;20.31;27.21
78509;BME280;67802;50.846;7.958;2024-03-08T10:36:11;97436.38;;;20.30;27.40
78509;BME280;67802;50.846;7.958;2024-03-08T10:38:39;97434.84;;;20.27;27.37
78509;BME280;67802;50.846;7.958;2024-03-08T10:41:09;97437.63;;;20.26;27.26
78509;BME280;67802;50.846;7.958;2024-03-08T10:43:52;97428.16;;;20.23;27.42
78509;BME280;67802;50.846;7.958;2024-03-08T10:46:32;97421.50;;;20.19;27.22
78509;BME280;67802;50.846;7.958;2024-03-08T10:49:08;97423.31;;;20.09;25.31
78509;BME280;67802;50.846;7.958;2024-03-08T10:51:37;97422.34;;;18.86;23.30
78509;BME280;67802;50.846;7.958;2024-03-08T10:54:04;97423.28;;;17.75;23.93
78509;BME280;67802;50.846;7.958;2024-03-08T10:56:32;97424.59;;;17.01;24.92
78509;BME280;67802;50.846;7.958;2024-03-08T10:58:57;97403.56;;;16.43;25.34
78509;BME280;67802;50.846;7.958;2024-03-08T11:01:23;97399.84;;;16.34;26.52
78509;BME280;67802;50.846;7.958;2024-03-08T11:03:51;97409.69;;;16.66;26.39
78509;BME280;67802;50.846;7.958;2024-03-08T11:09:11;97389.06;;;17.43;26.92
78509;BME280;67802;50.846;7.958;2024-03-08T11:11:52;97393.69;;;17.73;26.81
78509;BME280;67802;50.846;7.958;2024-03-08T11:14:43;97387.31;;;17.99;26.84
78509;BME280;67802;50.846;7.958;2024-03-08T11:17:08;97390.13;;;18.18;26.67
78509;BME280;67802;50.846;7.958;2024-03-08T11:19:34;97386.34;;;18.32;26.78
78509;BME280;67802;50.846;7.958;2024-03-08T11:22:01;97378.31;;;18.45;26.91
78509;BME280;67802;50.846;7.958;2024-03-08T11:24:27;97366.03;;;18.56;27.01
78509;BME280;67802;50.846;7.958;2024-03-08T11:26:56;97368.69;;;18.56;27.56
78509;BME280;67802;50.846;7.958;2024-03-08T11:32:12;97360.91;;;18.75;26.67
78509;BME280;67802;50.846;7.958;2024-03-08T11:34:41;97355.84;;;18.83;26.75
78509;BME280;67802;50.846;7.958;2024-03-08T11:37:13;97354.38;;;18.91;26.84
78509;BME280;67802;50.846;7.958;2024-03-08T11:39:41;97365.38;;;18.96;26.80
78509;BME280;67802;50.846;7.958;2024-03-08T11:42:11;97354.56;;;18.99;26.90
78509;BME280;67802;50.846;7.958;2024-03-08T11:44:37;97353.34;;;19.03;26.83
78509;BME280;67802;50.846;7.958;2024-03-08T11:47:02;97341.59;;;19.07;26.78
78509;BME280;67802;50.846;7.958;2024-03-08T11:49:31;97341.31;;;19.10;26.50
78509;BME280;67802;50.846;7.958;2024-03-08T11:51:56;97340.59;;;19.08;27.36
78509;BME280;67802;50.846;7.958;2024-03-08T11:54:22;97339.53;;;19.11;27.22
78509;BME280;67802;50.846;7.958;2024-03-08T11:56:51;97334.81;;;19.15;26.95
78509;BME280;67802;50.846;7.958;2024-03-08T11:59:17;97332.63;;;19.20;27.29
78509;BME280;67802;50.846;7.958;2024-03-08T12:01:43;97328.75;;;19.24;26.98
78509;BME280;67802;50.846;7.958;2024-03-08T12:04:11;97322.25;;;19.28;27.28
78509;BME280;67802;50.846;7.958;2024-03-08T12:06:40;97332.53;;;19.31;27.26
78509;BME280;67802;50.846;7.958;2024-03-08T12:09:12;97321.47;;;19.37;26.61
78509;BME280;67802;50.846;7.958;2024-03-08T12:11:38;97318.56;;;19.40;26.71
78509;BME280;67802;50.846;7.958;2024-03-08T12:14:04;97313.03;;;19.43;26.86
78509;BME280;67802;50.846;7.958;2024-03-08T12:16:30;97305.94;;;19.44;26.94
78509;BME280;67802;50.846;7.958;2024-03-08T12:18:56;97306.47;;;19.38;27.27
78509;BME280;67802;50.846;7.958;2024-03-08T12:21:21;97307.59;;;19.35;27.10
78509;BME280;67802;50.846;7.958;2024-03-08T12:24:01;97310.91;;;19.37;26.98
78509;BME280;67802;50.846;7.958;2024-03-08T12:26:27;97300.25;;;19.39;27.18
78509;BME280;67802;50.846;7.958;2024-03-08T12:28:53;97298.44;;;19.39;27.23
78509;BME280;67802;50.846;7.958;2024-03-08T12:31:18;97296.50;;;19.41;27.40
78509;BME280;67802;50.846;7.958;2024-03-08T12:33:54;97297.34;;;19.42;27.25
78509;BME280;67802;50.846;7.958;2024-03-08T12:36:21;97294.59;;;19.43;27.20
78509;BME280;67802;50.846;7.958;2024-03-08T12:38:47;97291.81;;;19.45;27.43
78509;BME280;67802;50.846;7.958;2024-03-08T12:41:14;97283.78;;;19.47;27.48
78509;BME280;67802;50.846;7.958;2024-03-08T12:43:39;97288.06;;;19.48;27.47
78509;BME280;67802;50.846;7.958;2024-03-08T12:46:05;97281.84;;;19.49;27.46
78509;BME280;67802;50.846;7.958;2024-03-08T12:48:36;97278.25;;;19.50;27.65
78509;BME280;67802;50.846;7.958;2024-03-08T12:51:06;97276.41;;;19.50;27.32
78509;BME280;67802;50.846;7.958;2024-03-08T12:53:32;97274.63;;;19.51;27.49
78509;BME280;67802;50.846;7.958;2024-03-08T12:55:57;97268.41;;;19.52;27.48
78509;BME280;67802;50.846;7.958;2024-03-08T12:58:23;97257.84;;;19.52;27.47
78509;BME280;67802;50.846;7.958;2024-03-08T13:00:48;97259.66;;;19.51;27.41
78509;BME280;67802;50.846;7.958;2024-03-08T13:03:14;97250.50;;;19.55;27.04